Time;durP1;ratioP1;P1;durP2;ratioP2;P2;SDS_P1;SDS_P2;PMS_P1;PMS_P2;Temp;Humidity;BMP_temperature;BMP_pressure;BME280_temperature;BME280_humidity;BME280_pressure;Samples;Min_cycle;Max_cycle;Signal;HPM_P1;HPM_P2
2023/03/22 00:01:55;;;;;;;2.53;1.52;;;;;;;;;;4989546;28;20026;-76
2023/03/22 00:04:22;;;;;;;4.05;1.63;;;;;;;;;;4988621;28;20030;-76
2023/03/22 00:06:48;;;;;;;5.40;1.58;;;;;;;;;;4990776;28;20029;-76
2023/03/22 00:09:15;;;;;;;6.13;1.70;;;;;;;;;;4989400;28;20619;-76
2023/03/22 00:11:41;;;;;;;1.90;1.38;;;;;;;;;;4991246;28;20032;-76
2023/03/22 00:14:07;;;;;;;3.67;1.90;;;;;;;;;;4995553;28;20022;-76
2023/03/22 00:16:33;;;;;;;2.50;1.40;;;;;;;;;;4991535;28;20023;-76
2023/03/22 00:18:59;;;;;;;2.75;1.45;;;;;;;;;;4988422;28;20030;-76
2023/03/22 00:21:26;;;;;;;3.50;1.70;;;;;;;;;;4992958;28;20563;-76
2023/03/22 00:23:52;;;;;;;2.25;1.50;;;;;;;;;;4995124;28;20419;-76
2023/03/22 00:26:18;;;;;;;8.05;1.67;;;;;;;;;;4991758;28;20018;-76
2023/03/22 00:28:44;;;;;;;2.92;1.65;;;;;;;;;;4995178;28;20603;-76
2023/03/22 00:31:11;;;;;;;1.92;1.50;;;;;;;;;;4990326;28;20134;-76
2023/03/22 00:33:37;;;;;;;1.98;1.25;;;;;;;;;;4993376;28;20026;-76
2023/03/22 00:36:07;;;;;;;1.90;1.70;;;;;;;;;;4990201;28;20030;-76
2023/03/22 00:38:37;;;;;;;4.20;1.75;;;;;;;;;;4992861;28;20052;-76
2023/03/22 00:41:07;;;;;;;8.70;1.88;;;;;;;;;;4991437;28;20041;-76
2023/03/22 00:43:33;;;;;;;2.05;1.50;;;;;;;;;;4987965;28;20503;-76
2023/03/22 00:45:59;;;;;;;3.38;1.73;;;;;;;;;;4986911;28;20076;-76
2023/03/22 00:48:25;;;;;;;3.40;1.67;;;;;;;;;;4986771;28;20029;-76
2023/03/22 00:50:52;;;;;;;4.15;2.00;;;;;;;;;;4989421;28;20125;-76
2023/03/22 00:53:18;;;;;;;8.98;2.00;;;;;;;;;;4989573;28;20049;-76
2023/03/22 00:55:44;;;;;;;3.92;1.70;;;;;;;;;;4990642;28;20081;-76
2023/03/22 00:58:10;;;;;;;3.17;1.75;;;;;;;;;;4990742;28;20594;-75
2023/03/22 01:00:36;;;;;;;2.60;1.73;;;;;;;;;;4992817;28;20197;-76
2023/03/22 01:03:03;;;;;;;2.30;1.48;;;;;;;;;;4988823;28;20026;-76
2023/03/22 01:05:33;;;;;;;1.85;1.48;;;;;;;;;;4989928;28;20416;-76
2023/03/22 01:08:09;;;;;;;3.80;2.35;;;;;;;;;;4990371;28;20044;-76
2023/03/22 01:10:39;;;;;;;2.88;1.60;;;;;;;;;;4991080;28;20118;-76
2023/03/22 01:13:06;;;;;;;2.92;1.75;;;;;;;;;;4989087;28;20033;-76
2023/03/22 01:15:32;;;;;;;2.90;1.70;;;;;;;;;;4989849;28;20085;-76
2023/03/22 01:17:58;;;;;;;2.38;1.75;;;;;;;;;;4991087;28;20097;-76
2023/03/22 01:20:25;;;;;;;2.28;1.70;;;;;;;;;;4989298;28;20038;-76
2023/03/22 01:22:51;;;;;;;3.53;2.67;;;;;;;;;;4995231;28;20026;-76
2023/03/22 01:25:17;;;;;;;2.42;1.58;;;;;;;;;;4989814;28;20022;-76
2023/03/22 01:27:44;;;;;;;3.88;1.73;;;;;;;;;;5000184;28;21552;-76
2023/03/22 01:30:11;;;;;;;2.92;1.95;;;;;;;;;;4991780;28;20038;-76
2023/03/22 01:32:37;;;;;;;2.35;1.67;;;;;;;;;;4983619;28;20029;-75
2023/03/22 01:35:05;;;;;;;2.60;1.80;;;;;;;;;;4991345;28;20039;-76
2023/03/22 01:37:31;;;;;;;3.38;1.88;;;;;;;;;;4984728;28;20030;-76
2023/03/22 01:39:57;;;;;;;3.97;1.80;;;;;;;;;;4997016;28;20025;-76
2023/03/22 01:42:24;;;;;;;3.00;1.90;;;;;;;;;;5000990;28;20051;-76
2023/03/22 01:45:09;;;;;;;2.65;1.75;;;;;;;;;;5019646;28;20021;-76
2023/03/22 01:47:35;;;;;;;3.42;1.75;;;;;;;;;;5013231;28;20064;-76
2023/03/22 01:50:02;;;;;;;4.60;1.80;;;;;;;;;;5018810;28;20030;-76
2023/03/22 01:52:28;;;;;;;2.42;1.70;;;;;;;;;;5008408;28;20161;-76
2023/03/22 01:54:54;;;;;;;3.72;2.13;;;;;;;;;;5019604;28;20497;-76
2023/03/22 01:57:21;;;;;;;2.35;1.50;;;;;;;;;;5011348;28;20105;-76
2023/03/22 01:59:48;;;;;;;4.15;2.30;;;;;;;;;;5008913;28;20021;-76
2023/03/22 02:02:21;;;;;;;3.38;2.08;;;;;;;;;;4997830;28;20021;-76
2023/03/22 02:04:49;;;;;;;;;;;;;;;;;;5008872;28;20099;-76
2023/03/22 02:07:26;;;;;;;4.97;2.15;;;;;;;;;;5015758;28;19928;-76
2023/03/22 02:09:55;;;;;;;2.40;2.00;;;;;;;;;;5006771;28;20029;-75
2023/03/22 02:12:43;;;;;;;2.00;1.80;;;;;;;;;;5012333;28;20021;-76
2023/03/22 02:15:17;;;;;;;5.13;2.20;;;;;;;;;;5012685;28;20117;-76
2023/03/22 02:18:05;;;;;;;5.35;2.33;;;;;;;;;;5011124;28;20040;-75
2023/03/22 02:20:50;;;;;;;5.07;2.10;;;;;;;;;;5014945;28;20037;-76
2023/03/22 02:23:22;;;;;;;4.03;1.85;;;;;;;;;;5009988;28;20105;-76
2023/03/22 02:26:07;;;;;;;5.03;2.60;;;;;;;;;;5013431;28;20048;-75
2023/03/22 02:28:51;;;;;;;4.07;1.80;;;;;;;;;;5009404;28;20097;-76
2023/03/22 02:31:46;;;;;;;5.00;2.28;;;;;;;;;;5006417;28;20034;-76
2023/03/22 02:34:34;;;;;;;4.05;2.13;;;;;;;;;;5011822;28;20047;-75
2023/03/22 02:37:23;;;;;;;2.42;1.83;;;;;;;;;;5021853;28;20153;-75
2023/03/22 02:39:49;;;;;;;3.00;2.00;;;;;;;;;;5010745;28;20021;-75
2023/03/22 02:42:21;;;;;;;2.78;1.98;;;;;;;;;;5011892;28;20054;-75
2023/03/22 02:44:56;;;;;;;4.53;2.40;;;;;;;;;;5010283;28;20022;-75
2023/03/22 02:47:43;;;;;;;4.50;2.05;;;;;;;;;;5022555;28;20029;-75
2023/03/22 02:50:22;;;;;;;3.10;1.92;;;;;;;;;;4997055;28;20153;-75
2023/03/22 02:53:07;;;;;;;2.88;2.10;;;;;;;;;;5014122;28;20033;-75
2023/03/22 02:55:53;;;;;;;3.83;1.98;;;;;;;;;;5010244;28;20022;-75
2023/03/22 02:58:25;;;;;;;4.63;2.05;;;;;;;;;;4997139;28;20037;-75
2023/03/22 03:00:51;;;;;;;;;;;;;;;;;;5007065;28;20045;-75
2023/03/22 03:03:18;;;;;;;2.40;2.05;;;;;;;;;;5011574;28;19971;-75
2023/03/22 03:05:46;;;;;;;3.50;2.25;;;;;;;;;;5013576;28;20036;-75
2023/03/22 03:08:15;;;;;;;3.15;2.20;;;;;;;;;;5009421;28;20034;-75
2023/03/22 03:10:41;;;;;;;2.22;1.80;;;;;;;;;;5021342;28;20025;-75
2023/03/22 03:13:12;;;;;;;2.42;1.83;;;;;;;;;;5006551;28;20026;-75
2023/03/22 03:15:41;;;;;;;3.45;2.22;;;;;;;;;;4996586;28;20378;-75
2023/03/22 03:18:12;;;;;;;3.75;1.92;;;;;;;;;;4988571;28;20048;-75
2023/03/22 03:20:59;;;;;;;4.05;2.08;;;;;;;;;;5010456;28;20037;-75
2023/03/22 03:23:27;;;;;;;2.13;1.50;;;;;;;;;;5005873;28;20042;-75
2023/03/22 03:26:12;;;;;;;3.03;2.03;;;;;;;;;;5011299;28;20017;-75
2023/03/22 03:28:42;;;;;;;2.13;1.80;;;;;;;;;;5013472;28;20351;-75
2023/03/22 03:31:14;;;;;;;7.60;1.75;;;;;;;;;;5012245;28;20030;-74
2023/03/22 03:33:44;;;;;;;6.15;1.88;;;;;;;;;;5013195;28;20034;-75
2023/03/22 03:36:13;;;;;;;1.95;1.75;;;;;;;;;;5008643;28;20034;-75
2023/03/22 03:38:41;;;;;;;2.75;1.80;;;;;;;;;;5009412;28;20184;-75
2023/03/22 03:41:15;;;;;;;2.78;1.50;;;;;;;;;;5011696;28;20840;-75
2023/03/22 03:43:42;;;;;;;3.00;1.75;;;;;;;;;;5009314;28;20045;-75
2023/03/22 03:46:08;;;;;;;2.90;1.90;;;;;;;;;;5016321;28;20106;-75
2023/03/22 03:48:35;;;;;;;4.30;1.80;;;;;;;;;;5009529;28;20120;-75
2023/03/22 03:51:02;;;;;;;2.72;1.63;;;;;;;;;;5007289;28;20049;-75
2023/03/22 03:53:29;;;;;;;2.88;1.90;;;;;;;;;;5015176;28;20013;-75
2023/03/22 03:55:55;;;;;;;2.58;2.10;;;;;;;;;;5010005;28;20087;-75
2023/03/22 03:58:22;;;;;;;2.03;1.70;;;;;;;;;;5011984;28;20014;-75
2023/03/22 04:00:49;;;;;;;2.42;1.55;;;;;;;;;;5007875;28;20095;-75
2023/03/22 04:03:15;;;;;;;2.30;1.90;;;;;;;;;;5011337;28;20101;-75
2023/03/22 04:16:24;;;;;;;2.75;1.73;;;;;;;;;;5136453;27;21051;-74
2023/03/22 04:18:52;;;;;;;3.08;1.70;;;;;;;;;;5121937;27;20027;-74
2023/03/22 04:21:18;;;;;;;2.22;1.70;;;;;;;;;;5119553;27;20035;-74
2023/03/22 04:23:45;;;;;;;2.22;2.03;;;;;;;;;;5117250;27;20046;-74
2023/03/22 04:26:11;;;;;;;2.95;1.60;;;;;;;;;;5115957;27;20075;-74
2023/03/22 04:28:38;;;;;;;2.47;1.73;;;;;;;;;;5109854;27;20024;-74
2023/03/22 04:31:04;;;;;;;3.08;1.60;;;;;;;;;;5118979;27;20024;-74
2023/03/22 04:33:31;;;;;;;2.78;1.63;;;;;;;;;;5113563;27;20019;-74
2023/03/22 04:35:58;;;;;;;2.30;1.35;;;;;;;;;;5113994;27;20031;-74
2023/03/22 04:38:24;;;;;;;2.97;1.95;;;;;;;;;;5114042;27;20110;-74
2023/03/22 04:40:50;;;;;;;4.13;1.70;;;;;;;;;;5122089;27;20027;-74
2023/03/22 04:43:17;;;;;;;2.53;1.60;;;;;;;;;;5113200;27;20497;-74
2023/03/22 04:45:45;;;;;;;3.40;1.77;;;;;;;;;;5115953;27;20514;-75
2023/03/22 04:48:11;;;;;;;3.00;1.70;;;;;;;;;;5112582;27;20027;-74
2023/03/22 04:50:38;;;;;;;2.90;2.20;;;;;;;;;;5117919;27;20516;-74
2023/03/22 04:53:05;;;;;;;3.20;1.60;;;;;;;;;;5114577;27;20505;-75
2023/03/22 04:55:33;;;;;;;4.43;1.70;;;;;;;;;;5120858;27;20045;-74
2023/03/22 04:57:59;;;;;;;3.55;1.77;;;;;;;;;;5114917;27;20035;-74
2023/03/22 05:00:28;;;;;;;2.22;1.70;;;;;;;;;;5120891;27;20007;-74
2023/03/22 05:02:55;;;;;;;3.33;1.90;;;;;;;;;;5119867;27;20061;-74
2023/03/22 05:05:21;;;;;;;4.68;2.03;;;;;;;;;;5118189;27;20084;-75
2023/03/22 05:07:47;;;;;;;1.90;1.70;;;;;;;;;;5121717;27;20038;-74
2023/03/22 05:10:13;;;;;;;3.45;1.65;;;;;;;;;;5122797;27;20019;-75
2023/03/22 05:12:39;;;;;;;2.17;1.92;;;;;;;;;;5117618;27;20015;-74
2023/03/22 05:15:06;;;;;;;3.10;1.83;;;;;;;;;;5118186;27;20243;-74
2023/03/22 05:17:32;;;;;;;2.40;1.92;;;;;;;;;;5096871;28;20498;-74
2023/03/22 05:20:05;;;;;;;3.45;1.80;;;;;;;;;;5102454;27;20031;-75
2023/03/22 05:22:33;;;;;;;4.55;1.90;;;;;;;;;;5103336;27;20039;-73
2023/03/22 05:24:59;;;;;;;5.82;2.03;;;;;;;;;;5101395;27;20043;-74
2023/03/22 05:27:30;;;;;;;2.38;1.80;;;;;;;;;;5099913;27;20028;-74
2023/03/22 05:29:56;;;;;;;2.10;1.55;;;;;;;;;;5104297;27;20063;-73
2023/03/22 05:32:24;;;;;;;3.58;1.90;;;;;;;;;;5103940;27;20027;-74
2023/03/22 05:34:50;;;;;;;3.75;2.00;;;;;;;;;;5101400;27;20702;-73
2023/03/22 05:37:20;;;;;;;2.72;2.00;;;;;;;;;;5104533;27;20032;-74
2023/03/22 05:39:46;;;;;;;5.65;1.52;;;;;;;;;;5102383;27;20085;-73
2023/03/22 05:42:12;;;;;;;2.42;1.50;;;;;;;;;;5099273;27;20031;-73
2023/03/22 05:44:38;;;;;;;4.97;2.00;;;;;;;;;;5105523;27;20035;-73
2023/03/22 05:47:05;;;;;;;3.67;1.70;;;;;;;;;;5101995;27;20106;-73
2023/03/22 05:49:31;;;;;;;4.35;1.67;;;;;;;;;;5094954;27;20661;-73
2023/03/22 05:51:58;;;;;;;2.67;1.45;;;;;;;;;;5099259;27;20081;-74
2023/03/22 05:54:24;;;;;;;3.58;1.75;;;;;;;;;;5104772;27;20102;-73
2023/03/22 05:56:50;;;;;;;3.17;1.85;;;;;;;;;;5101261;27;20027;-74
2023/03/22 05:59:16;;;;;;;2.33;2.00;;;;;;;;;;5101051;27;20016;-74
2023/03/22 06:01:43;;;;;;;2.60;2.03;;;;;;;;;;5099426;27;20054;-74
2023/03/22 06:04:09;;;;;;;6.65;2.20;;;;;;;;;;5111711;27;20020;-74
2023/03/22 06:06:36;;;;;;;3.53;2.00;;;;;;;;;;5098368;27;20028;-74
2023/03/22 06:09:03;;;;;;;2.28;1.95;;;;;;;;;;5105773;27;20604;-73
2023/03/22 06:11:34;;;;;;;3.45;1.80;;;;;;;;;;5103213;27;20023;-73
2023/03/22 06:14:00;;;;;;;3.58;2.53;;;;;;;;;;5106293;27;20027;-75
2023/03/22 06:16:26;;;;;;;1.98;1.70;;;;;;;;;;5103992;27;20079;-74
2023/03/22 06:18:53;;;;;;;2.50;1.80;;;;;;;;;;5095075;27;20031;-74
2023/03/22 06:21:19;;;;;;;4.53;2.10;;;;;;;;;;5101021;27;20749;-74
2023/03/22 06:23:45;;;;;;;4.80;1.90;;;;;;;;;;5100412;27;20031;-74
2023/03/22 06:26:11;;;;;;;3.45;1.90;;;;;;;;;;5101563;27;20390;-75
2023/03/22 06:28:38;;;;;;;4.78;1.95;;;;;;;;;;5098517;27;20015;-74
2023/03/22 06:31:10;;;;;;;1.95;1.60;;;;;;;;;;5104211;27;20063;-74
2023/03/22 06:33:36;;;;;;;3.72;1.75;;;;;;;;;;5098668;27;20012;-73
2023/03/22 06:36:03;;;;;;;2.67;2.00;;;;;;;;;;5102345;27;20022;-74
2023/03/22 06:38:29;;;;;;;2.97;2.00;;;;;;;;;;5105281;27;20085;-74
2023/03/22 06:40:56;;;;;;;3.67;1.90;;;;;;;;;;5102161;27;20018;-73
2023/03/22 06:43:22;;;;;;;3.35;2.20;;;;;;;;;;5101309;27;20024;-74
2023/03/22 06:45:48;;;;;;;6.53;2.30;;;;;;;;;;5102529;27;20035;-75
2023/03/22 06:48:15;;;;;;;5.07;2.85;;;;;;;;;;5095419;27;20024;-75
2023/03/22 06:50:41;;;;;;;3.50;2.22;;;;;;;;;;5101352;27;20503;-75
2023/03/22 06:53:08;;;;;;;4.22;2.38;;;;;;;;;;5101165;27;20085;-75
2023/03/22 06:55:34;;;;;;;4.53;2.80;;;;;;;;;;5102136;27;20058;-75
2023/03/22 06:58:00;;;;;;;3.97;2.50;;;;;;;;;;5101747;27;20027;-75
2023/03/22 07:00:27;;;;;;;4.35;2.53;;;;;;;;;;5104619;27;20108;-77
2023/03/22 07:02:53;;;;;;;3.88;2.40;;;;;;;;;;5102687;27;20890;-77
2023/03/22 07:05:20;;;;;;;5.80;2.53;;;;;;;;;;5100936;27;20028;-77
2023/03/22 07:07:46;;;;;;;3.85;3.40;;;;;;;;;;5104661;27;20102;-78
2023/03/22 07:10:12;;;;;;;5.13;4.03;;;;;;;;;;5104437;27;20039;-77
2023/03/22 07:12:39;;;;;;;6.28;5.00;;;;;;;;;;5105108;27;20020;-75
2023/03/22 07:15:05;;;;;;;6.57;4.55;;;;;;;;;;5105339;27;20060;-73
2023/03/22 07:17:32;;;;;;;5.78;3.72;;;;;;;;;;5098490;27;20020;-75
2023/03/22 07:19:58;;;;;;;3.83;2.55;;;;;;;;;;5100988;27;20027;-74
2023/03/22 07:22:24;;;;;;;6.10;3.10;;;;;;;;;;5097725;28;20645;-73
2023/03/22 07:24:53;;;;;;;3.45;2.75;;;;;;;;;;5103647;27;20103;-76
2023/03/22 07:27:19;;;;;;;3.00;2.15;;;;;;;;;;5097741;27;20027;-75
2023/03/22 07:29:46;;;;;;;6.45;2.85;;;;;;;;;;5100683;27;20024;-74
2023/03/22 07:32:12;;;;;;;5.68;3.03;;;;;;;;;;5095942;28;20106;-74
2023/03/22 07:34:38;;;;;;;5.07;2.70;;;;;;;;;;5099105;27;20926;-75
2023/03/22 07:37:07;;;;;;;4.65;2.92;;;;;;;;;;5096654;27;20042;-76
2023/03/22 07:39:33;;;;;;;3.42;3.13;;;;;;;;;;5096113;28;20034;-75
2023/03/22 07:41:59;;;;;;;3.17;2.60;;;;;;;;;;5094310;28;20103;-83
2023/03/22 07:44:26;;;;;;;3.15;2.15;;;;;;;;;;5097092;27;20032;-81
2023/03/22 07:46:52;;;;;;;3.50;2.40;;;;;;;;;;5095383;27;20172;-80
2023/03/22 07:49:18;;;;;;;3.65;2.25;;;;;;;;;;5094910;28;20111;-78
2023/03/22 07:51:45;;;;;;;4.80;2.80;;;;;;;;;;5100493;27;20785;-76
2023/03/22 07:54:11;;;;;;;9.02;7.50;;;;;;;;;;5101167;28;20122;-80
2023/03/22 07:56:37;;;;;;;10.93;7.60;;;;;;;;;;5096200;27;20021;-78
2023/03/22 07:59:04;;;;;;;12.68;11.02;;;;;;;;;;5102480;28;20027;-79
2023/03/22 08:01:30;;;;;;;9.57;7.20;;;;;;;;;;5099822;28;20047;-78
2023/03/22 08:03:56;;;;;;;6.38;5.68;;;;;;;;;;5101472;27;20024;-78
2023/03/22 08:06:22;;;;;;;6.28;5.35;;;;;;;;;;5100940;28;20055;-79
2023/03/22 08:08:48;;;;;;;8.80;5.80;;;;;;;;;;5103085;28;20092;-78
2023/03/22 08:11:15;;;;;;;7.57;6.78;;;;;;;;;;5098409;28;20027;-79
2023/03/22 08:13:41;;;;;;;4.18;3.30;;;;;;;;;;5099099;28;20378;-74
2023/03/22 08:16:07;;;;;;;7.00;4.90;;;;;;;;;;5099724;28;20040;-74
2023/03/22 08:18:33;;;;;;;5.43;3.75;;;;;;;;;;5104169;28;20106;-73
2023/03/22 08:21:00;;;;;;;9.50;6.00;;;;;;;;;;5100159;28;20020;-75
2023/03/22 08:23:27;;;;;;;5.82;5.22;;;;;;;;;;5103911;28;20065;-75
2023/03/22 08:25:53;;;;;;;7.53;5.13;;;;;;;;;;5100988;28;20118;-74
2023/03/22 08:28:19;;;;;;;6.53;3.20;;;;;;;;;;5106767;28;20494;-74
2023/03/22 08:30:47;;;;;;;5.28;3.35;;;;;;;;;;5099110;28;20023;-75
2023/03/22 08:33:14;;;;;;;5.35;3.97;;;;;;;;;;5109455;27;20043;-74
2023/03/22 08:35:41;;;;;;;5.88;3.60;;;;;;;;;;5101302;28;20015;-77
2023/03/22 08:38:07;;;;;;;6.00;5.38;;;;;;;;;;5099513;28;20015;-74
2023/03/22 08:40:33;;;;;;;6.20;4.47;;;;;;;;;;5106358;28;20507;-76
2023/03/22 08:43:00;;;;;;;5.15;4.20;;;;;;;;;;5099948;28;20506;-75
2023/03/22 08:45:27;;;;;;;8.80;4.63;;;;;;;;;;5095871;28;20153;-75
2023/03/22 08:47:53;;;;;;;4.97;3.60;;;;;;;;;;5101604;27;20016;-75
2023/03/22 08:50:19;;;;;;;5.00;2.33;;;;;;;;;;5101375;28;20087;-74
2023/03/22 08:52:45;;;;;;;2.85;2.58;;;;;;;;;;5104995;27;20063;-75
2023/03/22 08:55:13;;;;;;;3.50;2.80;;;;;;;;;;5104801;27;20028;-76
2023/03/22 08:57:39;;;;;;;3.95;2.40;;;;;;;;;;5104823;27;20011;-76
2023/03/22 09:00:06;;;;;;;3.08;2.55;;;;;;;;;;5112320;27;20019;-78
2023/03/22 09:02:32;;;;;;;2.67;2.33;;;;;;;;;;5108407;27;20020;-79
2023/03/22 09:04:58;;;;;;;5.03;3.88;;;;;;;;;;5109060;27;20050;-76
2023/03/22 09:07:26;;;;;;;3.80;2.60;;;;;;;;;;5109986;27;20495;-75
2023/03/22 09:09:52;;;;;;;5.82;2.42;;;;;;;;;;5105313;27;20626;-75
2023/03/22 09:12:18;;;;;;;3.60;2.60;;;;;;;;;;5106364;27;20023;-75
2023/03/22 09:14:46;;;;;;;3.35;2.80;;;;;;;;;;5109385;27;20057;-76
2023/03/22 09:17:13;;;;;;;5.82;4.80;;;;;;;;;;5103085;27;20047;-74
2023/03/22 09:19:39;;;;;;;30.77;21.33;;;;;;;;;;5096523;27;20545;-74
2023/03/22 09:22:05;;;;;;;21.88;15.15;;;;;;;;;;5099358;27;20066;-74
2023/03/22 09:24:32;;;;;;;13.40;11.60;;;;;;;;;;5103026;27;20023;-74
2023/03/22 09:26:58;;;;;;;8.00;7.15;;;;;;;;;;5106388;27;20537;-74
2023/03/22 09:29:24;;;;;;;8.25;5.80;;;;;;;;;;5106245;27;20057;-73
2023/03/22 09:31:50;;;;;;;7.55;4.93;;;;;;;;;;5101953;27;20019;-75
2023/03/22 09:34:17;;;;;;;21.00;13.02;;;;;;;;;;5104251;27;20572;-74
2023/03/22 09:36:43;;;;;;;46.08;32.22;;;;;;;;;;5102873;27;20218;-77
2023/03/22 09:39:10;;;;;;;58.08;43.13;;;;;;;;;;5101422;27;20065;-73
2023/03/22 09:41:36;;;;;;;31.17;23.38;;;;;;;;;;5101603;27;20521;-71
2023/03/22 09:44:04;;;;;;;18.98;15.38;;;;;;;;;;5103764;27;20034;-74
2023/03/22 09:46:33;;;;;;;19.65;14.60;;;;;;;;;;5102804;27;20080;-73
2023/03/22 09:49:01;;;;;;;14.23;10.70;;;;;;;;;;5105187;27;20508;-73
2023/03/22 09:51:30;;;;;;;8.95;6.25;;;;;;;;;;5098645;27;20032;-74
2023/03/22 09:53:56;;;;;;;6.55;3.83;;;;;;;;;;5098997;27;20544;-75
2023/03/22 09:56:25;;;;;;;11.65;4.63;;;;;;;;;;5103839;27;20067;-74
2023/03/22 09:59:07;;;;;;;7.38;4.18;;;;;;;;;;5100943;27;20023;-74
2023/03/22 10:01:39;;;;;;;5.55;4.10;;;;;;;;;;5102053;27;20581;-74
2023/03/22 10:04:06;;;;;;;5.10;4.10;;;;;;;;;;5099333;27;20059;-75
2023/03/22 10:06:32;;;;;;;4.75;3.28;;;;;;;;;;5101381;27;20035;-73
2023/03/22 10:09:07;;;;;;;5.90;3.70;;;;;;;;;;5099978;27;20051;-73
2023/03/22 10:11:43;;;;;;;5.05;3.90;;;;;;;;;;5100889;27;20088;-73
2023/03/22 10:14:28;;;;;;;5.68;4.55;;;;;;;;;;5101313;27;20098;-72
2023/03/22 10:16:55;;;;;;;5.97;4.10;;;;;;;;;;5100188;27;20089;-72
2023/03/22 10:19:26;;;;;;;5.43;4.25;;;;;;;;;;5103151;27;20447;-75
2023/03/22 10:21:54;;;;;;;5.90;4.82;;;;;;;;;;5102014;27;20031;-73
2023/03/22 10:24:23;;;;;;;5.65;3.70;;;;;;;;;;5101507;27;20126;-72
2023/03/22 10:26:51;;;;;;;8.32;4.72;;;;;;;;;;5102356;28;20115;-73
2023/03/22 10:29:23;;;;;;;5.65;4.35;;;;;;;;;;5101518;27;20100;-72
2023/03/22 10:31:49;;;;;;;5.60;3.83;;;;;;;;;;5099801;27;20027;-72
2023/03/22 10:34:19;;;;;;;5.60;4.53;;;;;;;;;;5104691;27;20023;-72
2023/03/22 10:36:46;;;;;;;6.03;4.15;;;;;;;;;;5104893;27;20027;-73
2023/03/22 10:39:18;;;;;;;5.38;4.00;;;;;;;;;;5104070;27;20023;-72
2023/03/22 10:41:45;;;;;;;5.85;3.92;;;;;;;;;;5098816;27;20106;-72
2023/03/22 10:44:15;;;;;;;6.03;4.22;;;;;;;;;;5101437;27;20172;-72
2023/03/22 10:46:42;;;;;;;4.90;3.78;;;;;;;;;;5103664;27;20428;-73
2023/03/22 10:49:12;;;;;;;8.00;4.45;;;;;;;;;;5101666;27;20034;-73
2023/03/22 10:51:49;;;;;;;5.55;5.00;;;;;;;;;;5104651;27;20277;-72
2023/03/22 10:54:17;;;;;;;5.43;4.53;;;;;;;;;;5101705;27;20102;-72
2023/03/22 10:56:43;;;;;;;7.15;4.20;;;;;;;;;;5101226;27;20111;-72
2023/03/22 10:59:29;;;;;;;5.25;3.80;;;;;;;;;;5099272;27;20076;-74
2023/03/22 11:01:55;;;;;;;7.40;4.22;;;;;;;;;;5102529;27;20038;-76
2023/03/22 11:04:22;;;;;;;6.15;4.05;;;;;;;;;;5103057;27;20059;-75
2023/03/22 11:06:49;;;;;;;5.47;4.07;;;;;;;;;;5101863;27;20047;-74
2023/03/22 11:09:17;;;;;;;11.15;4.47;;;;;;;;;;5101237;27;20023;-74
2023/03/22 11:11:54;;;;;;;8.32;3.85;;;;;;;;;;5103853;27;20015;-73
2023/03/22 11:14:24;;;;;;;3.92;3.45;;;;;;;;;;5110848;27;20109;-75
2023/03/22 11:16:56;;;;;;;4.40;3.50;;;;;;;;;;5102595;27;20492;-74
2023/03/22 11:19:27;;;;;;;4.13;3.60;;;;;;;;;;5105219;27;20023;-74
2023/03/22 11:21:56;;;;;;;6.40;3.88;;;;;;;;;;5103021;28;20027;-72
2023/03/22 11:24:25;;;;;;;8.57;3.97;;;;;;;;;;5104682;27;20027;-72
2023/03/22 11:27:06;;;;;;;4.07;3.30;;;;;;;;;;5099237;27;20115;-72
2023/03/22 11:29:40;;;;;;;6.73;5.13;;;;;;;;;;5097761;27;20305;-73
2023/03/22 11:32:19;;;;;;;4.18;3.70;;;;;;;;;;5100836;27;20304;-78
2023/03/22 11:34:46;;;;;;;4.07;3.55;;;;;;;;;;5106448;28;20108;-75
2023/03/22 11:37:16;;;;;;;5.32;3.10;;;;;;;;;;5103791;27;20012;-74
2023/03/22 11:39:48;;;;;;;5.15;3.80;;;;;;;;;;5101260;27;20499;-77
2023/03/22 11:42:18;;;;;;;5.78;4.57;;;;;;;;;;5108718;27;20051;-77
2023/03/22 11:44:44;;;;;;;5.13;4.20;;;;;;;;;;5103198;28;20032;-76
2023/03/22 11:47:12;;;;;;;4.97;3.80;;;;;;;;;;5102728;27;20049;-76
2023/03/22 11:49:46;;;;;;;6.80;4.28;;;;;;;;;;5102763;27;20111;-75
2023/03/22 11:52:21;;;;;;;5.47;4.45;;;;;;;;;;5100737;27;20027;-76
2023/03/22 11:54:48;;;;;;;7.90;4.55;;;;;;;;;;5098164;28;20061;-76
2023/03/22 11:57:17;;;;;;;6.68;4.22;;;;;;;;;;5102546;27;20012;-76
2023/03/22 11:59:57;;;;;;;7.97;4.78;;;;;;;;;;5101678;28;20655;-76
2023/03/22 12:02:27;;;;;;;6.03;3.67;;;;;;;;;;5100616;28;20033;-77
2023/03/22 12:04:59;;;;;;;5.95;3.80;;;;;;;;;;5104385;28;20040;-79
2023/03/22 12:07:26;;;;;;;4.80;4.30;;;;;;;;;;5104546;28;20405;-79
2023/03/22 12:09:57;;;;;;;4.65;3.88;;;;;;;;;;5100380;28;20475;-78
2023/03/22 12:12:30;;;;;;;5.50;3.53;;;;;;;;;;5102913;28;20032;-78
2023/03/22 12:15:02;;;;;;;4.72;3.63;;;;;;;;;;5100588;28;20035;-76
2023/03/22 12:17:47;;;;;;;4.72;3.65;;;;;;;;;;5100854;28;20023;-77
2023/03/22 12:20:36;;;;;;;4.13;3.65;;;;;;;;;;5102014;28;20170;-79
2023/03/22 12:23:09;;;;;;;3.95;3.55;;;;;;;;;;5097851;27;20149;-79
2023/03/22 12:25:35;;;;;;;4.57;3.63;;;;;;;;;;5103222;28;20730;-79
2023/03/22 12:28:05;;;;;;;5.10;3.63;;;;;;;;;;5107041;27;20023;-80
2023/03/22 12:30:37;;;;;;;4.28;3.45;;;;;;;;;;5107386;27;20024;-79
2023/03/22 12:33:09;;;;;;;4.50;3.50;;;;;;;;;;5106125;27;20491;-80
2023/03/22 12:35:38;;;;;;;4.07;3.65;;;;;;;;;;5108901;27;20068;-79
2023/03/22 12:38:15;;;;;;;5.72;3.97;;;;;;;;;;5107172;27;20550;-79
2023/03/22 12:40:42;;;;;;;4.43;3.55;;;;;;;;;;5106746;27;20042;-77
2023/03/22 12:43:27;;;;;;;4.30;3.90;;;;;;;;;;5107130;27;20142;-76
2023/03/22 12:45:56;;;;;;;5.70;4.18;;;;;;;;;;5118451;27;20047;-76
2023/03/22 12:48:34;;;;;;;5.30;3.47;;;;;;;;;;5105568;27;20026;-76
2023/03/22 12:51:04;;;;;;;4.85;3.83;;;;;;;;;;5103259;27;20110;-77
2023/03/22 12:53:33;;;;;;;5.88;4.03;;;;;;;;;;5115459;27;20115;-77
2023/03/22 12:56:00;;;;;;;4.45;4.00;;;;;;;;;;5102621;27;20506;-76
2023/03/22 12:58:27;;;;;;;6.90;3.90;;;;;;;;;;5101220;27;20172;-77
2023/03/22 13:00:58;;;;;;;4.30;3.90;;;;;;;;;;5102519;27;20102;-77
2023/03/22 13:03:27;;;;;;;4.50;3.80;;;;;;;;;;5101979;27;20116;-77
2023/03/22 13:06:01;;;;;;;3.92;3.45;;;;;;;;;;5101799;27;20535;-77
2023/03/22 13:08:47;;;;;;;6.43;4.38;;;;;;;;;;5102943;27;20053;-75
2023/03/22 13:11:21;;;;;;;4.95;3.70;;;;;;;;;;5102289;27;20091;-77
2023/03/22 13:13:48;;;;;;;4.30;3.75;;;;;;;;;;5100945;27;20105;-78
2023/03/22 13:16:18;;;;;;;5.22;4.20;;;;;;;;;;5108202;27;20044;-78
2023/03/22 13:18:44;;;;;;;5.47;3.83;;;;;;;;;;5098035;27;20030;-77
2023/03/22 13:21:21;;;;;;;9.05;4.40;;;;;;;;;;5100397;27;20024;-78
2023/03/22 13:24:03;;;;;;;8.23;3.95;;;;;;;;;;5102876;27;20024;-78
2023/03/22 13:26:32;;;;;;;5.90;3.90;;;;;;;;;;5103052;27;20134;-77
2023/03/22 13:29:00;;;;;;;5.38;3.80;;;;;;;;;;5102210;27;20077;-77
2023/03/22 13:31:33;;;;;;;6.57;4.50;;;;;;;;;;5102269;27;20053;-77
2023/03/22 13:34:02;;;;;;;5.07;3.88;;;;;;;;;;5099224;27;20020;-78
2023/03/22 13:36:31;;;;;;;4.80;3.58;;;;;;;;;;5103529;27;20036;-77
2023/03/22 13:39:02;;;;;;;6.15;3.60;;;;;;;;;;5106733;27;20127;-77
2023/03/22 13:41:28;;;;;;;4.97;3.80;;;;;;;;;;5101248;27;20032;-78
2023/03/22 13:43:55;;;;;;;7.32;4.68;;;;;;;;;;5102009;27;20032;-78
2023/03/22 13:46:21;;;;;;;4.82;4.00;;;;;;;;;;5099624;27;20043;-77
2023/03/22 13:48:51;;;;;;;6.15;4.30;;;;;;;;;;5101905;27;20028;-78
2023/03/22 13:51:24;;;;;;;4.47;3.80;;;;;;;;;;5100152;27;20036;-77
2023/03/22 13:54:04;;;;;;;6.50;4.30;;;;;;;;;;5097525;27;20101;-77
2023/03/22 13:56:34;;;;;;;5.60;4.35;;;;;;;;;;5104428;27;20024;-77
2023/03/22 13:59:03;;;;;;;5.30;3.97;;;;;;;;;;5103065;27;20650;-79
2023/03/22 14:01:33;;;;;;;4.78;3.83;;;;;;;;;;5100033;27;20024;-78
2023/03/22 14:04:00;;;;;;;4.10;3.70;;;;;;;;;;5100789;27;21098;-80
2023/03/22 14:06:28;;;;;;;4.40;3.40;;;;;;;;;;5105633;27;20084;-78
2023/03/22 14:09:10;;;;;;;4.18;3.42;;;;;;;;;;5102218;27;20034;-79
2023/03/22 14:11:37;;;;;;;;;;;;;;;;;;5102193;27;20466;-77
2023/03/22 14:14:06;;;;;;;4.25;3.60;;;;;;;;;;5110950;27;19912;-78
2023/03/22 14:16:43;;;;;;;5.35;4.03;;;;;;;;;;5099655;27;20030;-77
2023/03/22 14:19:15;;;;;;;7.55;4.20;;;;;;;;;;5099528;27;20032;-78
2023/03/22 14:21:43;;;;;;;4.43;3.70;;;;;;;;;;5102474;27;20024;-77
2023/03/22 14:24:14;;;;;;;4.38;3.67;;;;;;;;;;5100217;27;20031;-76
2023/03/22 14:26:42;;;;;;;6.38;4.25;;;;;;;;;;5103670;27;20055;-78
2023/03/22 14:29:10;;;;;;;5.10;3.97;;;;;;;;;;5100190;27;20094;-78
2023/03/22 14:31:37;;;;;;;4.38;3.97;;;;;;;;;;5101548;27;20111;-77
2023/03/22 14:34:04;;;;;;;4.47;3.50;;;;;;;;;;5102257;27;20106;-78
2023/03/22 14:36:34;;;;;;;4.60;3.85;;;;;;;;;;5101482;27;20051;-78
2023/03/22 14:39:03;;;;;;;5.00;4.00;;;;;;;;;;5098578;27;20024;-78
2023/03/22 14:41:29;;;;;;;5.15;3.95;;;;;;;;;;5100735;27;20532;-78
2023/03/22 14:44:00;;;;;;;5.05;3.47;;;;;;;;;;5101722;27;20119;-74
2023/03/22 14:46:32;;;;;;;4.72;4.10;;;;;;;;;;5102044;27;20035;-77
2023/03/22 14:48:59;;;;;;;4.47;3.90;;;;;;;;;;5103207;27;20665;-79
2023/03/22 14:51:31;;;;;;;4.78;4.18;;;;;;;;;;5102541;27;20110;-78
2023/03/22 14:53:58;;;;;;;4.90;4.10;;;;;;;;;;5099719;27;20896;-79
2023/03/22 14:56:27;;;;;;;4.97;4.25;;;;;;;;;;5097934;27;20035;-77
2023/03/22 14:58:55;;;;;;;4.93;4.43;;;;;;;;;;5103846;27;20083;-78
2023/03/22 15:01:24;;;;;;;5.07;4.57;;;;;;;;;;5102816;27;20077;-78
2023/03/22 15:03:56;;;;;;;6.10;4.88;;;;;;;;;;5101895;27;21507;-77
2023/03/22 15:06:23;;;;;;;5.13;4.35;;;;;;;;;;5104562;27;20030;-77